createdAt,value
2023-02-19T00:01:55.578Z,9.73
2023-02-19T00:04:23.853Z,16.15
2023-02-19T00:06:51.141Z,14.25
2023-02-19T00:09:20.331Z,15.65
2023-02-19T00:11:47.979Z,20.30
2023-02-19T00:14:18.191Z,15.32
2023-02-19T00:19:15.324Z,13.68
2023-02-19T00:21:42.980Z,13.80
2023-02-19T00:24:12.243Z,20.73
2023-02-19T00:26:41.202Z,14.33
2023-02-19T00:29:09.735Z,22.60
2023-02-19T00:31:36.893Z,18.75
2023-02-19T00:34:05.631Z,14.20
2023-02-19T00:36:36.531Z,18.75
2023-02-19T00:39:05.253Z,16.95
2023-02-19T00:41:32.807Z,13.95
2023-02-19T00:44:02.496Z,14.55
2023-02-19T00:46:33.085Z,12.35
2023-02-19T00:49:00.799Z,15.68
2023-02-19T00:51:30.737Z,29.00
2023-02-19T00:53:59.699Z,13.00
2023-02-19T00:56:27.261Z,18.83
2023-02-19T00:58:54.248Z,19.20
2023-02-19T01:01:21.442Z,16.00
2023-02-19T01:03:48.714Z,18.40
2023-02-19T01:06:17.274Z,15.65
2023-02-19T01:08:44.693Z,11.70
2023-02-19T01:11:13.008Z,14.23
2023-02-19T01:13:42.398Z,16.55
2023-02-19T01:16:14.437Z,11.63
2023-02-19T01:18:41.888Z,14.82
2023-02-19T01:21:12.858Z,11.48
2023-02-19T01:23:40.578Z,18.45
2023-02-19T01:26:09.640Z,12.70
2023-02-19T01:28:36.658Z,15.55
2023-02-19T01:31:06.114Z,20.02
2023-02-19T01:33:34.220Z,15.43
2023-02-19T01:36:04.846Z,13.98
2023-02-19T01:38:32.505Z,14.43
2023-02-19T01:41:04.807Z,9.13
2023-02-19T01:43:55.023Z,14.02
2023-02-19T01:46:24.950Z,18.70
2023-02-19T01:48:52.981Z,9.43
2023-02-19T01:51:21.085Z,16.13
2023-02-19T01:53:53.763Z,10.73
2023-02-19T01:56:22.530Z,19.33
2023-02-19T01:58:50.217Z,10.90
2023-02-19T02:01:17.234Z,17.02
2023-02-19T02:03:48.902Z,16.45
2023-02-19T02:06:36.730Z,12.15
2023-02-19T02:09:22.163Z,11.32
2023-02-19T02:11:51.967Z,10.40
2023-02-19T02:20:41.242Z,9.88
2023-02-19T02:23:36.283Z,17.27
2023-02-19T02:26:16.333Z,14.60
2023-02-19T02:29:01.500Z,10.80
2023-02-19T02:32:12.667Z,13.13
2023-02-19T02:34:56.575Z,14.13
2023-02-19T02:37:28.552Z,13.27
2023-02-19T02:39:58.702Z,19.67
2023-02-19T02:42:28.605Z,9.57
2023-02-19T02:45:36.577Z,14.93
2023-02-19T02:48:26.070Z,13.25
2023-02-19T02:51:27.560Z,13.00
2023-02-19T02:54:23.470Z,16.60
2023-02-19T02:56:51.316Z,15.57
2023-02-19T02:59:23.862Z,5.88
2023-02-19T03:02:11.642Z,15.70
2023-02-19T03:05:14.180Z,13.63
2023-02-19T03:07:50.366Z,10.23
2023-02-19T03:10:23.456Z,10.70
2023-02-19T03:13:11.456Z,16.02
2023-02-19T03:16:29.186Z,10.05
2023-02-19T03:19:17.440Z,9.93
2023-02-19T03:21:51.907Z,12.82
2023-02-19T03:24:41.630Z,6.00
2023-02-19T03:27:13.015Z,16.20
2023-02-19T03:29:46.491Z,11.45
2023-02-19T03:32:29.650Z,10.10
2023-02-19T03:35:05.444Z,20.20
2023-02-19T03:37:41.490Z,14.35
2023-02-19T03:40:09.184Z,17.85
2023-02-19T03:42:44.265Z,8.60
2023-02-19T03:45:20.007Z,18.27
2023-02-19T03:47:58.309Z,15.60
2023-02-19T03:50:49.105Z,13.68
2023-02-19T03:53:30.442Z,10.40
2023-02-19T03:56:11.921Z,13.43
2023-02-19T03:58:42.599Z,12.00
2023-02-19T04:01:22.971Z,11.10
2023-02-19T04:03:59.421Z,8.23
2023-02-19T04:06:30.514Z,13.50
2023-02-19T04:09:02.450Z,10.50
2023-02-19T04:11:32.170Z,13.00
2023-02-19T04:14:25.895Z,17.25
2023-02-19T04:17:06.666Z,8.45
2023-02-19T04:19:37.507Z,6.28
2023-02-19T04:22:08.151Z,12.40
2023-02-19T04:24:43.161Z,9.10
2023-02-19T04:27:11.524Z,10.18
2023-02-19T04:29:39.360Z,12.40
2023-02-19T04:32:06.805Z,10.27
2023-02-19T04:34:37.877Z,14.50
2023-02-19T04:37:05.275Z,14.45
2023-02-19T04:39:32.860Z,9.40
2023-02-19T04:41:59.861Z,10.60
2023-02-19T04:44:26.992Z,12.38
2023-02-19T04:46:53.937Z,15.45
2023-02-19T04:49:20.960Z,12.27
2023-02-19T04:51:48.040Z,12.88
2023-02-19T04:54:16.282Z,7.75
2023-02-19T04:56:43.344Z,9.93
2023-02-19T04:59:10.446Z,8.52
2023-02-19T05:01:37.549Z,9.48
2023-02-19T05:04:05.479Z,7.93
2023-02-19T05:06:32.507Z,9.85
2023-02-19T05:08:59.601Z,12.00
2023-02-19T05:11:26.915Z,7.65
2023-02-19T05:13:56.275Z,8.82
2023-02-19T05:16:27.550Z,7.78
2023-02-19T05:18:54.678Z,12.50
2023-02-19T05:21:21.850Z,8.45
2023-02-19T05:23:48.969Z,13.77
2023-02-19T05:26:19.342Z,9.57
2023-02-19T05:28:49.114Z,11.38
2023-02-19T05:31:16.481Z,9.40
2023-02-19T05:33:44.450Z,9.57
2023-02-19T05:36:13.828Z,9.60
2023-02-19T05:38:41.481Z,9.38
2023-02-19T05:41:17.988Z,7.22
2023-02-19T05:43:46.602Z,12.10
2023-02-19T05:46:15.934Z,8.93
2023-02-19T05:48:43.491Z,13.02
2023-02-19T05:51:13.219Z,10.40
2023-02-19T05:53:40.973Z,8.63
2023-02-19T05:56:35.458Z,10.23
2023-02-19T05:59:06.864Z,6.70
2023-02-19T06:01:34.968Z,8.18
2023-02-19T06:04:02.180Z,11.55
2023-02-19T06:06:29.499Z,9.75
2023-02-19T06:08:56.899Z,11.50
2023-02-19T06:11:24.919Z,9.38
2023-02-19T06:13:51.989Z,9.85
2023-02-19T06:16:19.496Z,9.27
2023-02-19T06:18:46.925Z,13.68
2023-02-19T06:21:23.248Z,6.70
2023-02-19T06:23:51.646Z,11.98
2023-02-19T06:26:23.883Z,5.88
2023-02-19T06:28:53.322Z,18.15
2023-02-19T06:31:22.382Z,11.48
2023-02-19T06:33:50.929Z,10.70
2023-02-19T06:36:20.488Z,5.60
2023-02-19T06:38:47.732Z,11.88
2023-02-19T06:41:14.946Z,7.82
2023-02-19T06:43:42.371Z,11.07
2023-02-19T06:46:11.118Z,6.95
2023-02-19T06:48:39.564Z,10.82
2023-02-19T06:51:06.630Z,8.80
2023-02-19T06:53:33.811Z,7.18
2023-02-19T06:56:04.162Z,13.77
2023-02-19T06:58:32.781Z,13.48
2023-02-19T07:00:59.966Z,8.35
2023-02-19T07:03:27.067Z,8.57
2023-02-19T07:05:54.238Z,7.07
2023-02-19T07:08:21.739Z,10.43
2023-02-19T07:11:02.973Z,6.78
2023-02-19T07:13:30.007Z,8.20
2023-02-19T07:16:08.140Z,9.25
2023-02-19T07:18:49.554Z,10.70
2023-02-19T07:21:17.689Z,4.38
2023-02-19T07:23:45.867Z,5.65
2023-02-19T07:26:17.362Z,13.48
2023-02-19T07:28:48.064Z,10.93
2023-02-19T07:31:16.776Z,8.00
2023-02-19T07:33:44.815Z,9.30
2023-02-19T07:38:59.964Z,10.82
2023-02-19T07:41:27.597Z,14.18
2023-02-19T07:43:57.683Z,5.35
2023-02-19T07:46:25.225Z,5.20
2023-02-19T07:48:52.248Z,11.45
2023-02-19T07:51:20.218Z,7.90
2023-02-19T07:53:48.607Z,8.13
2023-02-19T07:56:15.810Z,7.38
2023-02-19T07:58:43.720Z,8.25
2023-02-19T08:01:19.408Z,6.45
2023-02-19T08:03:48.196Z,7.80
2023-02-19T08:06:16.485Z,10.35
2023-02-19T08:08:43.786Z,12.27
2023-02-19T08:11:29.192Z,8.15
2023-02-19T08:14:03.541Z,7.97
2023-02-19T08:16:42.600Z,11.48
2023-02-19T08:19:10.386Z,13.70
2023-02-19T08:21:37.498Z,8.98
2023-02-19T08:24:05.279Z,8.40
2023-02-19T08:26:33.534Z,13.90
2023-02-19T08:29:00.539Z,9.35
2023-02-19T08:31:27.799Z,12.25
2023-02-19T08:33:55.361Z,9.70
2023-02-19T08:36:22.348Z,10.27
2023-02-19T08:38:49.460Z,12.48
2023-02-19T08:41:16.725Z,11.13
2023-02-19T08:43:47.561Z,12.35
2023-02-19T08:46:14.711Z,11.93
2023-02-19T08:48:41.853Z,10.85
2023-02-19T08:51:11.124Z,12.20
2023-02-19T08:53:40.586Z,9.38
2023-02-19T08:56:14.227Z,10.35
2023-02-19T08:58:42.051Z,9.07
2023-02-19T09:01:15.708Z,12.60
2023-02-19T09:03:42.924Z,11.15
2023-02-19T09:06:19.174Z,11.80
2023-02-19T09:08:46.589Z,11.73
2023-02-19T09:11:14.271Z,8.10
2023-02-19T09:13:56.102Z,17.85
2023-02-19T09:16:28.670Z,10.95
2023-02-19T09:19:01.767Z,8.77
2023-02-19T09:21:28.874Z,13.30
2023-02-19T09:23:55.824Z,14.52
2023-02-19T09:26:23.716Z,8.35
2023-02-19T09:28:50.834Z,8.60
2023-02-19T09:31:18.048Z,8.55
2023-02-19T09:33:47.602Z,6.38
2023-02-19T09:36:16.845Z,12.02
2023-02-19T09:38:43.900Z,7.38
2023-02-19T09:41:31.045Z,9.80
2023-02-19T09:43:59.713Z,6.55
2023-02-19T09:46:29.967Z,11.95
2023-02-19T09:51:35.121Z,7.32
2023-02-19T09:54:06.532Z,11.85
2023-02-19T09:56:34.699Z,7.35
2023-02-19T09:59:01.883Z,9.75
2023-02-19T10:01:36.933Z,10.50
2023-02-19T10:04:04.538Z,13.50
2023-02-19T10:06:32.878Z,10.40
2023-02-19T10:09:26.743Z,13.23
2023-02-19T10:12:00.092Z,14.77
2023-02-19T10:14:42.020Z,12.07
2023-02-19T10:17:21.168Z,13.13
2023-02-19T10:19:48.596Z,13.27
2023-02-19T10:22:17.898Z,11.05
2023-02-19T10:25:45.179Z,13.05
2023-02-19T10:28:22.473Z,11.57
2023-02-19T10:30:54.209Z,9.30
2023-02-19T10:33:28.072Z,8.10
2023-02-19T10:36:19.737Z,15.82
2023-02-19T10:38:51.654Z,9.88
2023-02-19T10:41:29.390Z,9.38
2023-02-19T10:44:15.708Z,11.93
2023-02-19T10:46:45.939Z,13.70
2023-02-19T10:49:28.206Z,11.15
2023-02-19T10:51:57.288Z,8.95
2023-02-19T10:54:34.990Z,14.40
2023-02-19T10:57:30.084Z,12.77
2023-02-19T11:00:23.367Z,12.05
2023-02-19T11:02:51.074Z,6.68
2023-02-19T11:05:21.294Z,10.07
2023-02-19T11:10:34.625Z,8.07
2023-02-19T11:13:04.557Z,14.07
2023-02-19T11:15:36.044Z,14.25
2023-02-19T11:18:27.883Z,7.68
2023-02-19T11:21:00.811Z,12.43
2023-02-19T11:23:47.267Z,14.30
2023-02-19T11:26:26.557Z,16.80
2023-02-19T11:29:02.542Z,12.20
2023-02-19T11:31:33.039Z,12.30
2023-02-19T11:34:33.065Z,12.98
2023-02-19T11:37:12.368Z,10.95
2023-02-19T11:39:45.171Z,14.07
2023-02-19T11:42:15.188Z,13.70
2023-02-19T11:44:58.554Z,14.32
2023-02-19T11:47:57.416Z,8.60
2023-02-19T11:50:57.600Z,9.60
2023-02-19T11:53:33.792Z,5.38
2023-02-19T11:56:25.058Z,8.35
2023-02-19T11:59:01.076Z,11.40
2023-02-19T12:01:52.022Z,10.38
2023-02-19T12:04:57.953Z,6.18
2023-02-19T12:07:43.246Z,14.05
2023-02-19T12:10:19.844Z,8.55
2023-02-19T12:13:22.221Z,11.63
2023-02-19T12:16:13.320Z,11.35
2023-02-19T12:19:17.739Z,9.35
2023-02-19T12:22:02.003Z,8.30
2023-02-19T12:24:57.597Z,15.15
2023-02-19T12:27:36.411Z,8.50
2023-02-19T12:30:32.084Z,11.18
2023-02-19T12:33:04.823Z,13.70
2023-02-19T12:35:57.331Z,8.52
2023-02-19T12:38:42.379Z,9.95
2023-02-19T12:41:31.396Z,7.97
2023-02-19T12:44:13.551Z,9.65
2023-02-19T12:46:46.718Z,8.48
2023-02-19T12:49:30.621Z,7.80
2023-02-19T12:52:02.992Z,11.00
2023-02-19T12:54:41.954Z,8.93
2023-02-19T12:57:08.994Z,13.75
2023-02-19T12:59:49.072Z,8.65
2023-02-19T13:02:41.119Z,12.00
2023-02-19T13:05:40.608Z,13.30
2023-02-19T13:08:19.763Z,10.68
2023-02-19T13:10:55.125Z,11.45
2023-02-19T13:13:48.562Z,14.13
2023-02-19T13:16:19.465Z,16.48
2023-02-19T13:18:50.827Z,9.20
2023-02-19T13:21:39.868Z,12.35
2023-02-19T13:24:21.130Z,14.07
2023-02-19T13:27:18.260Z,9.13
2023-02-19T13:30:20.421Z,13.82
2023-02-19T13:33:06.935Z,12.20
2023-02-19T13:36:08.810Z,13.73
2023-02-19T13:38:48.038Z,11.82
2023-02-19T13:41:21.811Z,12.67
2023-02-19T13:43:56.488Z,11.73
2023-02-19T13:46:24.720Z,20.90
2023-02-19T13:49:29.798Z,12.93
2023-02-19T13:51:57.438Z,13.05
2023-02-19T13:54:30.224Z,9.88
2023-02-19T13:57:22.592Z,14.80
2023-02-19T14:00:00.504Z,15.48
2023-02-19T14:02:35.382Z,16.40
2023-02-19T14:05:11.427Z,14.68
2023-02-19T14:07:49.000Z,15.55
2023-02-19T14:10:53.156Z,13.70
2023-02-19T14:13:51.405Z,7.97
2023-02-19T14:20:17.728Z,17.15
2023-02-19T14:22:50.802Z,17.40
2023-02-19T14:25:38.494Z,10.48
2023-02-19T14:28:17.339Z,10.70
2023-02-19T14:30:56.491Z,12.65
2023-02-19T14:33:50.993Z,3.70
2023-02-19T14:36:22.626Z,10.18
2023-02-19T14:38:59.118Z,17.60
2023-02-19T14:41:30.052Z,12.35
2023-02-19T14:43:59.440Z,7.13
2023-02-19T14:46:45.344Z,8.68
2023-02-19T14:49:25.406Z,7.65
2023-02-19T14:51:59.577Z,8.18
2023-02-19T14:54:45.358Z,19.25
2023-02-19T14:57:19.216Z,18.88
2023-02-19T15:00:00.997Z,16.20
2023-02-19T15:02:30.755Z,9.10
2023-02-19T15:05:04.150Z,17.20
2023-02-19T15:07:46.022Z,17.98
2023-02-19T15:10:15.188Z,7.97
2023-02-19T15:12:59.606Z,17.65
2023-02-19T15:15:30.057Z,18.50
2023-02-19T15:17:59.248Z,11.57
2023-02-19T15:20:29.303Z,8.33
2023-02-19T15:23:01.992Z,14.23
2023-02-19T15:25:38.001Z,13.32
2023-02-19T15:28:31.069Z,14.35
2023-02-19T15:30:59.469Z,16.08
2023-02-19T15:33:39.223Z,12.63
2023-02-19T15:36:14.067Z,9.20
2023-02-19T15:38:45.042Z,12.70
2023-02-19T15:41:21.382Z,20.13
2023-02-19T15:43:54.337Z,7.85
2023-02-19T15:46:24.731Z,17.38
2023-02-19T15:49:06.813Z,13.75
2023-02-19T15:51:50.929Z,16.98
2023-02-19T15:54:34.969Z,10.45
2023-02-19T15:57:09.730Z,15.18
2023-02-19T15:59:45.205Z,18.25
2023-02-19T16:02:14.554Z,11.07
2023-02-19T16:04:45.681Z,24.73
2023-02-19T16:07:32.489Z,12.95
2023-02-19T16:10:22.087Z,13.73
2023-02-19T16:12:56.811Z,7.82
2023-02-19T16:15:24.150Z,15.15
2023-02-19T16:17:51.311Z,9.15
2023-02-19T16:20:23.266Z,12.77
2023-02-19T16:22:51.508Z,16.42
2023-02-19T16:25:37.479Z,14.85
2023-02-19T16:28:11.768Z,12.13
2023-02-19T16:30:39.187Z,6.75
2023-02-19T16:33:37.094Z,16.20
2023-02-19T16:36:30.003Z,9.52
2023-02-19T16:39:16.400Z,15.65
2023-02-19T16:41:47.154Z,14.02
2023-02-19T16:44:38.028Z,12.43
2023-02-19T16:47:25.344Z,9.80
2023-02-19T16:49:52.800Z,18.38
2023-02-19T16:52:19.850Z,11.77
2023-02-19T16:54:48.461Z,11.98
2023-02-19T16:57:16.073Z,21.17
2023-02-19T16:59:43.108Z,11.63
2023-02-19T17:02:17.189Z,27.08
2023-02-19T17:04:45.342Z,17.30
2023-02-19T17:07:15.838Z,10.55
2023-02-19T17:09:43.197Z,29.15
2023-02-19T17:12:12.406Z,19.27
2023-02-19T17:14:39.653Z,16.37
2023-02-19T17:17:06.909Z,12.77
2023-02-19T17:19:34.116Z,18.08
2023-02-19T17:22:01.261Z,18.67
2023-02-19T17:24:40.492Z,17.30
2023-02-19T17:27:34.225Z,12.38
2023-02-19T17:30:01.928Z,17.60
2023-02-19T17:32:32.092Z,16.30
2023-02-19T17:34:59.728Z,12.15
2023-02-19T17:37:26.977Z,23.67
2023-02-19T17:39:55.805Z,19.17
2023-02-19T17:42:26.141Z,18.70
2023-02-19T17:44:53.677Z,12.82
2023-02-19T17:47:21.525Z,20.42
2023-02-19T17:52:50.339Z,10.90
2023-02-19T17:55:18.569Z,12.50
2023-02-19T17:57:46.684Z,14.43
2023-02-19T18:00:22.599Z,18.67
2023-02-19T18:05:45.364Z,17.50
2023-02-19T18:08:14.384Z,8.90
2023-02-19T18:10:44.639Z,20.70
2023-02-19T18:13:32.241Z,11.82
2023-02-19T18:16:00.362Z,19.80
2023-02-19T18:18:35.502Z,15.60
2023-02-19T18:21:03.970Z,18.55
2023-02-19T18:23:31.415Z,19.45
2023-02-19T18:25:58.765Z,16.83
2023-02-19T18:28:25.958Z,13.13
2023-02-19T18:30:53.164Z,14.45
2023-02-19T18:33:20.438Z,20.35
2023-02-19T18:35:50.441Z,16.63
2023-02-19T18:38:17.854Z,20.27
2023-02-19T18:40:45.070Z,21.50
2023-02-19T18:43:12.321Z,10.10
2023-02-19T18:45:40.169Z,17.50
2023-02-19T18:48:07.240Z,14.98
2023-02-19T18:50:35.121Z,12.48
2023-02-19T18:53:02.414Z,19.10
2023-02-19T18:55:29.361Z,18.23
2023-02-19T18:57:56.405Z,24.67
2023-02-19T19:00:26.746Z,18.05
2023-02-19T19:02:58.899Z,21.38
2023-02-19T19:05:26.394Z,18.23
2023-02-19T19:07:55.603Z,22.33
2023-02-19T19:10:24.169Z,17.28
2023-02-19T19:12:51.614Z,22.40
2023-02-19T19:15:19.093Z,19.00
2023-02-19T19:17:47.416Z,18.52
2023-02-19T19:20:16.926Z,20.77
2023-02-19T19:22:43.972Z,18.58
2023-02-19T19:25:11.104Z,20.60
2023-02-19T19:27:38.153Z,22.42
2023-02-19T19:30:05.873Z,21.92
2023-02-19T19:32:33.037Z,21.85
2023-02-19T19:35:00.366Z,29.33
2023-02-19T19:37:29.316Z,22.55
2023-02-19T19:39:56.865Z,24.58
2023-02-19T19:42:24.541Z,20.77
2023-02-19T19:44:53.564Z,20.38
2023-02-19T19:47:20.925Z,19.58
2023-02-19T19:49:47.873Z,27.88
2023-02-19T19:52:15.254Z,18.48
2023-02-19T19:54:43.351Z,24.42
2023-02-19T19:57:11.489Z,26.00
2023-02-19T19:59:39.627Z,24.83
2023-02-19T20:02:08.122Z,26.50
2023-02-19T20:04:35.205Z,19.30
2023-02-19T20:07:02.470Z,23.98
2023-02-19T20:09:29.593Z,25.13
2023-02-19T20:12:00.554Z,25.58
2023-02-19T20:14:28.442Z,22.00
2023-02-19T20:16:56.502Z,24.65
2023-02-19T20:19:24.156Z,17.67
2023-02-19T20:21:56.409Z,28.92
2023-02-19T20:24:28.667Z,27.52
2023-02-19T20:27:02.112Z,28.75
2023-02-19T20:29:33.797Z,26.83
2023-02-19T20:32:03.690Z,29.92
2023-02-19T20:36:58.310Z,26.92
2023-02-19T20:39:29.072Z,30.63
2023-02-19T20:41:57.848Z,29.67
2023-02-19T20:44:26.291Z,20.50
2023-02-19T20:46:54.316Z,25.00
2023-02-19T20:49:25.022Z,28.95
2023-02-19T20:51:58.160Z,30.90
2023-02-19T20:54:30.367Z,22.67
2023-02-19T20:56:59.549Z,36.05
2023-02-19T20:59:31.760Z,33.73
2023-02-19T21:02:00.028Z,33.45
2023-02-19T21:04:27.390Z,32.25
2023-02-19T21:06:54.553Z,30.70
2023-02-19T21:09:22.941Z,37.35
2023-02-19T21:11:51.271Z,38.83
2023-02-19T21:14:18.495Z,33.80
2023-02-19T21:16:45.606Z,45.30
2023-02-19T21:19:12.687Z,48.25
2023-02-19T21:21:40.462Z,46.15
2023-02-19T21:24:09.661Z,33.83
2023-02-19T21:26:38.917Z,54.43
2023-02-19T21:29:07.238Z,40.50
2023-02-19T21:31:41.926Z,53.88
2023-02-19T21:34:12.717Z,50.22
2023-02-19T21:36:43.019Z,54.97
2023-02-19T21:39:13.991Z,49.22
2023-02-19T21:41:44.838Z,53.60
2023-02-19T21:44:12.624Z,33.92
2023-02-19T21:46:40.280Z,41.67
2023-02-19T21:49:07.413Z,46.58
2023-02-19T21:51:37.664Z,47.20
2023-02-19T21:54:06.741Z,43.58
2023-02-19T21:56:36.489Z,43.17
2023-02-19T22:01:38.869Z,39.25
2023-02-19T22:04:13.896Z,38.45
2023-02-19T22:06:41.994Z,39.83
2023-02-19T22:09:09.929Z,44.38
2023-02-19T22:11:37.002Z,46.67
2023-02-19T22:14:04.281Z,38.67
2023-02-19T22:16:31.441Z,38.90
2023-02-19T22:19:00.215Z,36.05
2023-02-19T22:21:32.526Z,44.78
2023-02-19T22:24:00.909Z,36.13
2023-02-19T22:26:31.674Z,22.27
2023-02-19T22:28:59.667Z,40.83
2023-02-19T22:31:28.352Z,46.33
2023-02-19T22:33:57.407Z,37.17
2023-02-19T22:36:26.819Z,37.40
2023-02-19T22:38:54.411Z,44.55
2023-02-19T22:41:21.915Z,47.03
2023-02-19T22:43:49.965Z,38.47
2023-02-19T22:46:20.877Z,37.20
2023-02-19T22:48:47.921Z,39.65
2023-02-19T22:51:17.712Z,43.95
2023-02-19T22:53:47.995Z,39.72
2023-02-19T22:58:43.772Z,42.67
2023-02-19T23:01:12.385Z,34.97
2023-02-19T23:03:49.894Z,34.72
2023-02-19T23:06:20.977Z,43.17
2023-02-19T23:08:47.935Z,42.53
2023-02-19T23:11:21.685Z,40.38
2023-02-19T23:13:48.880Z,44.65
2023-02-19T23:16:16.544Z,48.25
2023-02-19T23:18:43.664Z,50.83
2023-02-19T23:21:10.922Z,50.90
2023-02-19T23:23:38.001Z,32.13
2023-02-19T23:26:05.087Z,50.72
2023-02-19T23:28:32.213Z,47.78
2023-02-19T23:30:59.627Z,52.30
2023-02-19T23:33:27.199Z,45.97
2023-02-19T23:35:54.352Z,47.33
2023-02-19T23:38:21.468Z,44.25
2023-02-19T23:40:48.629Z,53.30
2023-02-19T23:43:15.845Z,51.95
2023-02-19T23:45:42.963Z,58.78
2023-02-19T23:48:10.013Z,52.58
2023-02-19T23:50:37.086Z,58.25
2023-02-19T23:53:04.651Z,56.67
2023-02-19T23:55:32.053Z,55.80
2023-02-19T23:57:59.053Z,56.90
